Time;durP1;ratioP1;P1;durP2;ratioP2;P2;SDS_P1;SDS_P2;PMS_P1;PMS_P2;Temp;Humidity;BMP_temperature;BMP_pressure;BME280_temperature;BME280_humidity;BME280_pressure;Samples;Min_cycle;Max_cycle;Signal;HPM_P1;HPM_P2
2023/03/24 00:01:41;;;;;;;10.73;10.13;;;;;;;13.32;85.42;95869.66;5073032;28;20204;-75
2023/03/24 00:04:08;;;;;;;9.60;9.07;;;;;;;13.28;86.59;95868.63;5071952;28;20197;-75
2023/03/24 00:06:35;;;;;;;7.80;7.30;;;;;;;13.30;87.59;95856.00;5084002;28;20235;-75
2023/03/24 00:09:03;;;;;;;7.80;7.30;;;;;;;13.36;84.90;95856.78;5092745;28;20599;-74
2023/03/24 00:11:28;;;;;;;7.17;6.53;;;;;;;13.49;83.98;95845.66;5057095;28;20185;-75
2023/03/24 00:13:57;;;;;;;8.17;7.57;;;;;;;13.44;83.91;95849.09;5075722;28;20697;-74
2023/03/24 00:16:23;;;;;;;6.77;6.37;;;;;;;13.43;83.77;95850.16;5081517;28;20184;-74
2023/03/24 00:18:51;;;;;;;7.60;7.07;;;;;;;13.50;82.10;95852.50;5071957;28;20250;-74
2023/03/24 00:21:20;;;;;;;7.00;6.63;;;;;;;13.54;82.44;95851.72;5074309;28;20308;-74
2023/03/24 00:23:46;;;;;;;8.90;8.30;;;;;;;13.53;81.90;95849.38;5056101;28;20188;-74
2023/03/24 00:26:15;;;;;;;9.40;8.83;;;;;;;13.52;81.84;95851.19;5077447;28;20220;-74
2023/03/24 00:28:47;;;;;;;8.80;8.23;;;;;;;13.44;82.35;95850.94;5075703;28;20189;-74
2023/03/24 00:31:14;;;;;;;14.33;13.57;;;;;;;13.41;81.54;95843.59;5075420;28;20181;-74
2023/03/24 00:33:41;;;;;;;17.30;16.30;;;;;;;13.37;81.52;95832.03;5075409;28;20239;-74
2023/03/24 00:36:11;;;;;;;10.43;9.73;;;;;;;13.26;82.79;95834.66;5082155;28;20192;-74
2023/03/24 00:38:38;;;;;;;8.77;8.13;;;;;;;13.27;82.45;95836.25;5095774;28;20250;-74
2023/03/24 00:41:06;;;;;;;10.37;9.87;;;;;;;13.30;81.76;95824.41;5095573;28;20196;-74
2023/03/24 00:43:32;;;;;;;11.83;10.93;;;;;;;13.26;82.17;95824.13;5095395;28;20604;-74
2023/03/24 00:46:04;;;;;;;13.07;12.30;;;;;;;13.23;81.64;95811.53;5089451;28;20212;-74
2023/03/24 00:48:30;;;;;;;6.90;6.47;;;;;;;13.21;82.79;95813.63;5064701;28;20634;-74
2023/03/24 00:50:56;;;;;;;6.53;5.93;;;;;;;13.23;82.45;95810.72;5094523;28;20683;-74
2023/03/24 00:53:24;;;;;;;8.67;8.07;;;;;;;13.27;81.92;95809.13;5080782;28;20209;-74
2023/03/24 00:55:50;;;;;;;5.77;5.43;;;;;;;13.25;82.33;95806.00;5095096;28;20677;-74
2023/03/24 00:58:18;;;;;;;6.00;5.60;;;;;;;13.16;83.73;95807.59;5075965;28;20192;-74
2023/03/24 01:00:45;;;;;;;5.73;5.33;;;;;;;13.09;84.98;95796.53;5076800;28;20197;-74
2023/03/24 01:03:11;;;;;;;5.40;4.90;;;;;;;13.00;86.27;95791.00;5074972;28;20188;-74
2023/03/24 01:05:36;;;;;;;4.90;4.60;;;;;;;12.93;86.88;95790.50;5094345;28;20177;-75
2023/03/24 01:08:03;;;;;;;4.90;4.60;;;;;;;12.84;87.24;95790.25;5078824;28;20193;-74
2023/03/24 01:10:33;;;;;;;4.67;4.37;;;;;;;12.67;88.13;95784.47;5075104;28;20197;-74
2023/03/24 01:12:59;;;;;;;6.10;5.60;;;;;;;12.62;88.59;95768.72;5092675;28;20189;-74
2023/03/24 01:15:28;;;;;;;6.47;5.97;;;;;;;12.59;88.53;95769.25;5076879;28;20636;-74
2023/03/24 01:17:54;;;;;;;7.13;6.63;;;;;;;12.48;89.50;95767.69;5074887;28;20191;-74
2023/03/24 01:20:22;;;;;;;8.40;7.90;;;;;;;12.44;89.88;95758.72;5075144;28;20717;-74
2023/03/24 01:22:48;;;;;;;8.37;7.87;;;;;;;12.44;89.34;95761.34;5083237;28;20189;-74
2023/03/24 01:25:21;;;;;;;8.20;7.67;;;;;;;12.44;89.38;95756.88;5094646;28;20196;-73
2023/03/24 01:27:47;;;;;;;8.50;7.90;;;;;;;12.41;89.37;95749.53;5060120;28;20335;-74
2023/03/24 01:30:15;;;;;;;8.43;7.73;;;;;;;12.52;88.50;95746.91;5087504;28;20187;-74
2023/03/24 01:32:42;;;;;;;9.00;8.50;;;;;;;12.48;88.49;95744.78;5074941;28;20597;-74
2023/03/24 01:35:08;;;;;;;7.97;7.40;;;;;;;12.45;88.69;95741.91;5072819;28;20213;-74
2023/03/24 01:37:34;;;;;;;8.20;7.60;;;;;;;12.45;89.15;95742.69;5074072;28;20188;-75
2023/03/24 01:39:59;;;;;;;9.07;8.37;;;;;;;12.56;87.62;95737.44;5074537;28;20193;-74
2023/03/24 01:42:26;;;;;;;9.10;8.53;;;;;;;12.64;86.96;95727.19;5088300;28;20204;-74
2023/03/24 01:45:00;;;;;;;6.10;5.70;;;;;;;12.75;85.64;95730.59;5092570;28;20189;-74
2023/03/24 01:47:26;;;;;;;5.70;5.30;;;;;;;12.77;85.73;95726.63;5074067;28;20182;-74
2023/03/24 01:49:59;;;;;;;5.40;5.00;;;;;;;12.70;86.03;95725.34;5082025;28;20215;-74
2023/03/24 01:52:28;;;;;;;5.70;5.10;;;;;;;12.68;85.98;95727.44;5080016;28;20260;-75
2023/03/24 01:54:57;;;;;;;5.50;5.00;;;;;;;12.63;86.67;95733.50;5090135;28;20514;-74
2023/03/24 01:57:36;;;;;;;5.33;5.00;;;;;;;12.66;85.96;95725.06;5093698;28;20180;-74
2023/03/24 02:00:09;;;;;;;6.87;5.27;;;;;;;12.66;85.90;95726.91;5084864;28;20669;-74
2023/03/24 02:02:36;;;;;;;5.40;5.00;;;;;;;12.71;85.46;95732.16;5074076;28;20288;-74
2023/03/24 02:05:07;;;;;;;5.63;5.10;;;;;;;12.67;85.46;95734.53;5091039;28;20584;-75
2023/03/24 02:07:45;;;;;;;5.37;4.97;;;;;;;12.63;85.54;95716.94;5093548;28;20642;-75
2023/03/24 02:10:14;;;;;;;5.70;5.30;;;;;;;12.64;85.48;95724.56;5093513;28;20180;-75
2023/03/24 02:12:41;;;;;;;4.87;4.57;;;;;;;12.54;86.15;95719.28;5093553;28;20216;-75
2023/03/24 02:15:07;;;;;;;5.57;5.00;;;;;;;12.68;84.31;95727.44;5073762;28;20187;-75
2023/03/24 02:17:53;;;;;;;5.10;4.70;;;;;;;12.77;84.11;95720.56;5093400;28;20181;-75
2023/03/24 02:20:40;;;;;;;5.57;4.77;;;;;;;12.80;83.93;95730.56;5093202;28;20168;-75
2023/03/24 02:23:37;;;;;;;4.97;4.57;;;;;;;12.79;84.25;95721.09;5081398;28;20188;-74
2023/03/24 02:26:17;;;;;;;5.57;4.93;;;;;;;12.71;84.74;95724.25;5093334;28;20316;-74
2023/03/24 02:29:02;;;;;;;5.53;4.33;;;;;;;12.61;85.76;95716.41;5093523;28;20551;-74
2023/03/24 02:31:42;;;;;;;6.20;5.53;;;;;;;12.69;85.50;95715.88;5093853;28;20243;-74
2023/03/24 02:34:30;;;;;;;4.93;4.63;;;;;;;12.73;84.81;95720.31;5083816;28;20168;-73
2023/03/24 02:37:26;;;;;;;4.50;4.20;;;;;;;12.56;85.65;95716.41;5073458;28;20191;-73
2023/03/24 02:39:57;;;;;;;4.40;4.10;;;;;;;12.68;84.83;95717.72;5073146;28;20178;-73
2023/03/24 02:42:48;;;;;;;4.37;4.07;;;;;;;12.61;84.93;95722.44;5073163;28;20209;-75
2023/03/24 02:45:36;;;;;;;4.63;4.33;;;;;;;12.65;84.76;95718.22;5042863;28;20185;-73
2023/03/24 02:48:22;;;;;;;4.53;4.23;;;;;;;12.74;83.88;95721.13;5073241;28;20184;-74
2023/03/24 02:51:07;;;;;;;4.17;3.97;;;;;;;12.69;83.20;95716.66;5072723;28;20193;-74
2023/03/24 02:54:00;;;;;;;5.60;5.20;;;;;;;12.73;82.92;95714.28;5077739;28;20218;-74
2023/03/24 02:56:31;;;;;;;6.17;5.87;;;;;;;12.78;82.28;95704.53;5092930;28;20214;-74
2023/03/24 02:59:00;;;;;;;5.23;4.70;;;;;;;12.80;81.80;95699.81;5092547;28;20165;-75
2023/03/24 03:01:31;;;;;;;4.40;4.10;;;;;;;12.93;80.99;95704.50;5072519;28;20235;-75
2023/03/24 03:04:18;;;;;;;6.43;5.83;;;;;;;12.94;80.49;95692.13;5074027;28;20185;-75
2023/03/24 03:06:51;;;;;;;7.27;6.60;;;;;;;13.01;79.45;95689.22;5072607;28;20173;-74
2023/03/24 03:09:20;;;;;;;5.77;5.47;;;;;;;13.16;78.63;95689.19;5072736;28;20181;-75
2023/03/24 03:11:49;;;;;;;6.63;6.27;;;;;;;13.18;78.23;95684.44;5072438;28;20185;-74
2023/03/24 03:14:31;;;;;;;9.07;8.37;;;;;;;13.21;78.10;95676.78;5070954;28;20185;-75
2023/03/24 03:17:03;;;;;;;10.13;9.60;;;;;;;13.31;77.52;95668.88;5071193;28;20184;-74
2023/03/24 03:19:33;;;;;;;10.93;10.23;;;;;;;13.37;77.28;95677.53;5062340;28;20166;-75
2023/03/24 03:22:01;;;;;;;9.57;9.07;;;;;;;13.33;77.58;95671.22;5071860;28;20217;-75
2023/03/24 03:24:33;;;;;;;7.20;6.80;;;;;;;13.31;77.26;95682.03;5090383;28;20187;-73
2023/03/24 03:27:17;;;;;;;7.20;6.80;;;;;;;13.33;76.91;95673.84;5092478;28;20710;-73
2023/03/24 03:29:53;;;;;;;6.53;6.13;;;;;;;13.38;76.86;95665.94;5092527;28;20196;-73
2023/03/24 03:32:27;;;;;;;5.70;5.37;;;;;;;13.35;76.60;95671.75;5088674;28;20177;-74
2023/03/24 03:35:17;;;;;;;5.63;5.33;;;;;;;13.37;76.26;95663.59;5054268;28;20370;-73
2023/03/24 03:38:13;;;;;;;6.33;5.93;;;;;;;13.39;76.54;95664.88;5072627;28;20283;-73
2023/03/24 03:40:59;;;;;;;5.47;5.17;;;;;;;13.39;76.60;95664.09;5072287;28;20197;-74
2023/03/24 03:43:26;;;;;;;6.00;5.57;;;;;;;13.32;77.13;95669.63;5084363;28;20180;-74
2023/03/24 03:45:52;;;;;;;5.63;5.23;;;;;;;13.33;76.75;95674.63;5092484;28;20195;-74
2023/03/24 03:48:17;;;;;;;5.33;4.93;;;;;;;13.45;76.39;95676.94;5058526;28;20220;-74
2023/03/24 03:50:44;;;;;;;5.53;5.13;;;;;;;13.45;76.41;95676.16;5091079;28;20204;-74
2023/03/24 03:53:12;;;;;;;4.63;4.33;;;;;;;13.48;76.10;95678.28;5081681;28;20181;-74
2023/03/24 03:55:37;;;;;;;5.70;5.40;;;;;;;13.43;76.77;95665.91;5072584;28;20256;-74
2023/03/24 03:58:03;;;;;;;5.23;4.93;;;;;;;13.37;77.21;95674.91;5073334;28;20265;-74
2023/03/24 04:00:29;;;;;;;5.50;5.10;;;;;;;13.31;77.54;95668.09;5076173;28;20212;-74
2023/03/24 04:03:21;;;;;;;6.00;5.60;;;;;;;13.37;77.62;95676.75;5086671;28;20189;-74
2023/03/24 04:06:02;;;;;;;7.00;6.50;;;;;;;13.29;78.01;95668.34;5060150;28;20661;-74
2023/03/24 04:08:51;;;;;;;9.10;8.50;;;;;;;13.30;78.51;95671.78;5076206;28;20188;-74
2023/03/24 04:11:39;;;;;;;10.30;9.80;;;;;;;13.21;79.03;95673.38;5076095;28;20258;-74
2023/03/24 04:14:29;;;;;;;10.53;9.87;;;;;;;13.19;78.93;95670.25;5091578;28;20172;-74
2023/03/24 04:17:03;;;;;;;8.43;7.97;;;;;;;13.08;79.41;95673.94;5076647;28;20165;-74
2023/03/24 04:19:37;;;;;;;11.10;10.40;;;;;;;13.04;79.57;95683.44;5075544;28;20176;-74
2023/03/24 04:22:18;;;;;;;9.60;9.00;;;;;;;13.14;78.36;95686.06;5074994;28;20201;-74
2023/03/24 04:24:43;;;;;;;10.23;9.63;;;;;;;13.19;78.12;95678.94;5075571;28;20546;-74
2023/03/24 04:27:20;;;;;;;7.40;7.00;;;;;;;13.21;77.53;95674.16;5089073;28;20229;-74
2023/03/24 04:30:31;;;;;;;6.60;6.20;;;;;;;13.25;77.19;95669.97;5095046;28;20582;-74
2023/03/24 04:33:04;;;;;;;6.40;5.87;;;;;;;13.30;76.67;95655.97;5035810;28;20251;-74
2023/03/24 04:35:39;;;;;;;5.70;5.40;;;;;;;13.33;75.92;95650.16;5075084;28;20264;-74
2023/03/24 04:38:10;;;;;;;5.50;5.20;;;;;;;13.37;75.47;95647.78;5075451;28;20173;-73
2023/03/24 04:40:40;;;;;;;6.40;5.80;;;;;;;13.47;75.03;95651.16;5085232;28;20207;-74
2023/03/24 04:43:12;;;;;;;7.20;6.80;;;;;;;13.44;75.09;95661.41;5079534;28;20250;-74
2023/03/24 04:45:37;;;;;;;10.30;9.70;;;;;;;13.48;74.83;95663.25;5076104;28;20204;-74
2023/03/24 04:48:07;;;;;;;14.60;13.87;;;;;;;13.51;74.41;95672.44;5091544;28;20241;-74
2023/03/24 04:50:38;;;;;;;17.00;15.90;;;;;;;13.50;74.59;95666.41;5090235;28;20549;-74
2023/03/24 04:53:06;;;;;;;20.80;19.53;;;;;;;13.41;75.22;95678.56;5093124;28;20189;-74
2023/03/24 04:55:34;;;;;;;16.63;15.67;;;;;;;13.48;75.18;95684.31;5094602;28;20180;-75
2023/03/24 04:57:59;;;;;;;12.17;11.47;;;;;;;13.55;75.31;95682.16;5094804;28;20188;-75
2023/03/24 05:00:26;;;;;;;10.33;9.73;;;;;;;13.55;75.43;95676.88;5093451;28;20176;-75
2023/03/24 05:02:52;;;;;;;8.03;7.23;;;;;;;13.61;75.56;95686.34;5095014;28;20193;-74
2023/03/24 05:05:17;;;;;;;4.73;4.43;;;;;;;13.58;76.10;95696.63;5094747;28;20191;-74
2023/03/24 05:07:43;;;;;;;5.03;4.73;;;;;;;13.60;76.53;95703.19;5075297;28;20204;-74
2023/03/24 05:10:09;;;;;;;4.80;4.50;;;;;;;13.65;76.62;95707.66;5078901;28;20288;-75
2023/03/24 05:12:35;;;;;;;5.70;5.20;;;;;;;13.60;77.16;95715.56;5094512;28;20271;-74
2023/03/24 05:15:01;;;;;;;4.80;4.50;;;;;;;13.62;77.37;95727.41;5094740;28;20258;-71
2023/03/24 05:17:26;;;;;;;4.13;3.93;;;;;;;13.73;77.13;95722.88;5094543;28;20637;-73
2023/03/24 05:19:51;;;;;;;4.67;4.37;;;;;;;13.74;77.49;95729.72;5064292;28;20271;-73
2023/03/24 05:22:17;;;;;;;4.90;4.60;;;;;;;13.67;78.21;95737.91;5084881;28;20209;-73
2023/03/24 05:24:42;;;;;;;5.43;5.07;;;;;;;13.74;78.39;95748.16;5074421;28;20188;-73
2023/03/24 05:27:07;;;;;;;5.70;5.40;;;;;;;13.77;78.85;95757.34;5074648;28;20224;-74
2023/03/24 05:29:33;;;;;;;7.77;7.37;;;;;;;13.77;79.38;95757.34;5075494;28;20683;-75
2023/03/24 05:31:58;;;;;;;6.47;6.17;;;;;;;13.75;81.71;95768.16;5075534;28;20709;-74
2023/03/24 05:34:24;;;;;;;3.47;3.30;;;;;;;13.79;83.49;95771.03;5084187;28;20189;-74
2023/03/24 05:36:49;;;;;;;4.40;4.13;;;;;;;13.71;86.48;95781.06;5074484;28;20264;-74
2023/03/24 05:39:15;;;;;;;5.20;4.83;;;;;;;13.62;89.10;95782.72;5078446;28;20188;-74
2023/03/24 05:41:40;;;;;;;6.90;6.50;;;;;;;13.48;92.75;95796.72;5093011;28;20252;-75
2023/03/24 05:44:06;;;;;;;9.77;9.17;;;;;;;13.26;95.51;95789.94;5093558;28;20629;-75
2023/03/24 05:46:31;;;;;;;6.33;6.03;;;;;;;13.20;97.87;95798.13;5094379;28;20168;-75
2023/03/24 05:48:56;;;;;;;6.80;6.30;;;;;;;13.16;100.00;95799.69;5094496;28;20208;-75
2023/03/24 05:51:22;;;;;;;7.03;6.63;;;;;;;13.06;100.00;95789.94;5093869;28;20183;-74
2023/03/24 05:53:47;;;;;;;6.73;6.10;;;;;;;13.03;100.00;95787.06;5093281;28;20177;-75
2023/03/24 05:56:12;;;;;;;6.40;6.03;;;;;;;13.07;100.00;95794.16;5094003;28;20176;-74
2023/03/24 05:58:38;;;;;;;5.97;5.57;;;;;;;12.98;100.00;95798.41;5093637;28;20538;-74
2023/03/24 06:01:10;;;;;;;8.77;8.27;;;;;;;12.89;100.00;95797.34;5085535;28;20638;-74
2023/03/24 06:03:37;;;;;;;8.87;8.37;;;;;;;12.86;100.00;95805.78;5089102;28;20219;-74
2023/03/24 06:06:05;;;;;;;6.83;6.43;;;;;;;12.77;100.00;95794.19;5080867;28;20223;-75
2023/03/24 06:08:32;;;;;;;6.40;5.90;;;;;;;12.62;100.00;95795.00;5073135;28;20221;-75
2023/03/24 06:11:01;;;;;;;7.10;6.50;;;;;;;12.68;100.00;95796.56;5082517;28;20276;-74
2023/03/24 06:13:27;;;;;;;7.70;7.00;;;;;;;12.69;100.00;95800.00;5093022;28;20228;-74
2023/03/24 06:15:53;;;;;;;6.30;5.80;;;;;;;12.63;100.00;95798.41;5073189;28;20189;-75
2023/03/24 06:18:20;;;;;;;5.93;5.47;;;;;;;12.64;100.00;95800.00;5074322;28;20185;-74
2023/03/24 06:20:49;;;;;;;6.97;5.30;;;;;;;12.58;100.00;95798.41;5054186;28;20301;-75
2023/03/24 06:23:15;;;;;;;5.00;4.70;;;;;;;12.61;100.00;95796.03;5073714;28;20181;-75
2023/03/24 06:25:43;;;;;;;6.23;5.83;;;;;;;12.67;100.00;95795.00;5073332;28;20351;-75
2023/03/24 06:28:12;;;;;;;5.47;5.17;;;;;;;12.75;100.00;95798.94;5075605;28;20311;-74
2023/03/24 06:30:39;;;;;;;6.40;6.00;;;;;;;12.69;100.00;95795.53;5073269;28;20178;-75
2023/03/24 06:33:05;;;;;;;5.63;5.33;;;;;;;12.78;100.00;95801.81;5074212;28;20184;-75
2023/03/24 06:35:30;;;;;;;7.90;7.30;;;;;;;12.80;100.00;95802.38;5062331;28;20181;-75
2023/03/24 06:37:55;;;;;;;6.37;5.97;;;;;;;12.83;100.00;95811.53;5078323;28;20241;-75
2023/03/24 06:40:21;;;;;;;6.40;5.80;;;;;;;12.78;100.00;95814.97;5074268;28;20260;-75
2023/03/24 06:42:48;;;;;;;6.23;5.73;;;;;;;12.64;100.00;95810.50;5093247;28;20208;-76
2023/03/24 06:45:14;;;;;;;7.53;7.03;;;;;;;12.72;100.00;95812.59;5093326;28;20176;-75
2023/03/24 06:47:39;;;;;;;7.77;7.27;;;;;;;12.69;100.00;95807.88;5092727;28;20183;-75
2023/03/24 06:50:06;;;;;;;6.80;6.30;;;;;;;12.58;100.00;95812.34;5093082;28;20286;-74
2023/03/24 06:52:32;;;;;;;7.10;6.67;;;;;;;12.71;100.00;95806.56;5093947;28;20235;-73
2023/03/24 06:54:57;;;;;;;6.80;6.40;;;;;;;12.80;100.00;95812.88;5055017;28;20189;-74
2023/03/24 06:57:22;;;;;;;7.07;6.57;;;;;;;12.81;100.00;95808.41;5072686;28;20181;-75
2023/03/24 06:59:48;;;;;;;6.60;6.20;;;;;;;12.73;100.00;95806.31;5055208;28;20563;-74
2023/03/24 07:02:13;;;;;;;8.40;7.80;;;;;;;12.72;100.00;95809.97;5082077;28;20275;-75
2023/03/24 07:04:38;;;;;;;6.83;6.33;;;;;;;12.69;100.00;95805.25;5060853;28;20188;-74
2023/03/24 07:07:04;;;;;;;7.03;6.60;;;;;;;12.61;100.00;95816.28;5073821;28;20268;-73
2023/03/24 07:09:29;;;;;;;6.87;6.37;;;;;;;12.68;100.00;95809.72;5075194;28;20197;-74
2023/03/24 07:11:55;;;;;;;7.10;6.60;;;;;;;12.72;100.00;95815.22;5072113;28;20188;-74
2023/03/24 07:14:20;;;;;;;6.67;6.07;;;;;;;12.76;100.00;95816.31;5072481;28;20188;-74
2023/03/24 07:16:46;;;;;;;6.70;6.20;;;;;;;12.77;100.00;95831.00;5085337;28;20529;-74
2023/03/24 07:19:11;;;;;;;6.00;5.60;;;;;;;12.63;100.00;95822.09;5087866;28;20653;-75
2023/03/24 07:21:37;;;;;;;7.17;6.47;;;;;;;12.61;100.00;95832.84;5064981;28;20554;-75
2023/03/24 07:24:02;;;;;;;6.40;6.00;;;;;;;12.65;100.00;95839.16;5071748;28;20654;-74
2023/03/24 07:26:28;;;;;;;10.23;9.53;;;;;;;12.60;100.00;95835.72;5053649;28;20223;-75
2023/03/24 07:28:53;;;;;;;10.20;9.50;;;;;;;12.52;100.00;95842.31;5074019;28;20177;-75
2023/03/24 07:31:19;;;;;;;9.37;8.87;;;;;;;12.45;100.00;95844.41;5075799;28;20204;-75
2023/03/24 07:33:44;;;;;;;10.10;9.27;;;;;;;12.41;100.00;95849.41;5093163;28;20278;-75
2023/03/24 07:36:10;;;;;;;19.83;18.57;;;;;;;12.26;100.00;95848.59;5095882;28;20504;-76
2023/03/24 07:38:35;;;;;;;10.87;10.07;;;;;;;12.34;100.00;95848.84;5085584;28;20181;-75
2023/03/24 07:41:01;;;;;;;9.33;8.70;;;;;;;12.17;100.00;95860.63;5078509;28;20204;-75
2023/03/24 07:43:26;;;;;;;11.87;11.10;;;;;;;12.19;100.00;95859.34;5063237;28;20235;-76
2023/03/24 07:45:52;;;;;;;9.73;9.10;;;;;;;12.20;100.00;95860.94;5076278;28;20264;-75
2023/03/24 07:48:17;;;;;;;9.97;9.37;;;;;;;12.12;100.00;95860.63;5076085;28;20188;-75
2023/03/24 07:50:43;;;;;;;9.87;9.17;;;;;;;12.12;100.00;95863.25;5076503;28;20181;-75
2023/03/24 07:53:08;;;;;;;7.73;7.13;;;;;;;12.15;100.00;95865.38;5075968;28;20502;-75
2023/03/24 07:55:36;;;;;;;7.17;6.60;;;;;;;12.18;100.00;95867.47;5072727;28;20625;-76
2023/03/24 07:58:01;;;;;;;7.87;7.37;;;;;;;12.28;100.00;95865.66;5078149;28;20629;-75
2023/03/24 08:00:28;;;;;;;8.10;7.47;;;;;;;12.28;100.00;95868.28;5087592;28;20173;-74
2023/03/24 08:02:53;;;;;;;7.17;6.57;;;;;;;12.29;100.00;95864.63;5063326;28;20647;-75
2023/03/24 08:05:20;;;;;;;6.30;5.80;;;;;;;12.19;100.00;95867.22;5075806;28;20185;-75
2023/03/24 08:07:54;;;;;;;6.77;5.83;;;;;;;12.26;100.00;95869.59;5076279;28;20184;-74
2023/03/24 08:10:22;;;;;;;6.13;5.63;;;;;;;12.24;100.00;95861.19;5075793;28;20268;-74
2023/03/24 08:12:48;;;;;;;6.73;6.20;;;;;;;12.35;100.00;95865.41;5075705;28;20274;-74
2023/03/24 08:15:13;;;;;;;7.07;6.47;;;;;;;12.37;100.00;95868.59;5075837;28;20239;-74
2023/03/24 08:17:40;;;;;;;7.13;6.63;;;;;;;12.42;100.00;95864.13;5089107;28;20282;-74
2023/03/24 08:20:14;;;;;;;6.87;6.27;;;;;;;12.42;100.00;95873.84;5093098;28;20196;-74
2023/03/24 08:22:41;;;;;;;7.67;6.60;;;;;;;12.44;100.00;95867.25;5075971;28;20201;-75
2023/03/24 08:25:11;;;;;;;6.30;5.80;;;;;;;12.41;100.00;95865.16;5073745;28;20520;-74
2023/03/24 08:27:37;;;;;;;6.73;6.13;;;;;;;12.38;100.00;95849.13;5092230;28;20235;-74
2023/03/24 08:30:09;;;;;;;6.17;5.60;;;;;;;12.35;100.00;95841.75;5082930;28;20181;-75
2023/03/24 08:32:34;;;;;;;6.97;6.33;;;;;;;12.41;100.00;95840.72;5076834;28;20257;-76
2023/03/24 08:35:01;;;;;;;6.63;6.13;;;;;;;12.45;100.00;95832.06;5078808;28;20533;-73
2023/03/24 08:37:26;;;;;;;7.60;7.03;;;;;;;12.37;100.00;95827.31;5093331;28;20628;-76
2023/03/24 08:39:57;;;;;;;7.47;6.87;;;;;;;12.54;100.00;95807.91;5088549;28;20193;-75
2023/03/24 08:42:22;;;;;;;15.27;14.33;;;;;;;12.55;100.00;95783.94;5081469;28;20197;-75
2023/03/24 08:44:48;;;;;;;8.27;7.77;;;;;;;12.51;100.00;95767.13;5093281;28;20247;-75
2023/03/24 08:47:13;;;;;;;9.30;8.60;;;;;;;12.40;100.00;95747.16;5093024;28;20184;-75
2023/03/24 08:49:38;;;;;;;7.07;6.47;;;;;;;12.39;100.00;95746.38;5060443;28;20510;-75
2023/03/24 08:52:04;;;;;;;7.63;7.13;;;;;;;12.41;100.00;95741.66;5081610;28;20217;-75
2023/03/24 08:54:29;;;;;;;6.47;6.03;;;;;;;12.42;100.00;95769.53;5074257;28;20234;-74
2023/03/24 08:56:55;;;;;;;8.30;7.50;;;;;;;12.47;100.00;95795.78;5084754;28;20188;-74
2023/03/24 08:59:20;;;;;;;8.47;7.97;;;;;;;12.55;100.00;95794.47;5072638;28;20654;-74
2023/03/24 09:01:45;;;;;;;9.63;8.93;;;;;;;12.60;100.00;95797.09;5084396;28;20750;-74
2023/03/24 09:04:11;;;;;;;7.23;6.73;;;;;;;12.80;100.00;95819.97;5077012;28;20272;-74
2023/03/24 09:06:36;;;;;;;10.10;9.50;;;;;;;12.81;100.00;95826.81;5081395;28;20192;-77
2023/03/24 09:09:01;;;;;;;9.40;8.87;;;;;;;13.00;100.00;95834.94;5094768;28;20185;-74
2023/03/24 09:11:27;;;;;;;9.93;9.27;;;;;;;13.13;100.00;95829.97;5071538;28;20185;-74
2023/03/24 09:13:52;;;;;;;8.43;7.83;;;;;;;13.15;100.00;95827.06;5074727;28;20264;-74
2023/03/24 09:16:18;;;;;;;10.00;9.33;;;;;;;13.14;100.00;95826.28;5074742;28;20630;-74
2023/03/24 09:18:43;;;;;;;10.63;9.93;;;;;;;13.16;100.00;95823.38;5074512;28;20188;-74
2023/03/24 09:21:09;;;;;;;9.97;9.17;;;;;;;13.37;100.00;95837.28;5083334;28;20323;-75
2023/03/24 09:23:35;;;;;;;7.00;6.60;;;;;;;13.45;100.00;95834.09;5089628;28;20188;-75
2023/03/24 09:26:02;;;;;;;5.47;5.10;;;;;;;13.32;100.00;95830.97;5074224;28;20231;-76
2023/03/24 09:28:28;;;;;;;9.30;8.70;;;;;;;13.52;100.00;95837.25;5082984;28;20236;-74
2023/03/24 09:31:03;;;;;;;11.33;10.63;;;;;;;13.65;100.00;95834.06;5076962;28;20193;-75
2023/03/24 09:33:29;;;;;;;10.23;9.50;;;;;;;13.69;100.00;95849.03;5074689;28;20188;-74
2023/03/24 09:35:59;;;;;;;6.37;5.90;;;;;;;13.65;100.00;95852.50;5073846;28;20538;-74
2023/03/24 09:38:25;;;;;;;16.40;15.27;;;;;;;13.68;100.00;95852.72;5086473;28;20176;-77
2023/03/24 09:40:56;;;;;;;5.60;5.10;;;;;;;13.82;100.00;95847.66;5093982;28;20196;-75
2023/03/24 09:43:21;;;;;;;6.50;6.00;;;;;;;13.94;100.00;95831.53;5084083;28;20178;-74
2023/03/24 09:45:53;;;;;;;6.93;6.53;;;;;;;14.09;100.00;95829.66;5074073;28;20192;-74
2023/03/24 09:48:30;;;;;;;5.43;5.03;;;;;;;14.17;100.00;95844.09;5074661;28;20173;-75
2023/03/24 09:51:07;;;;;;;7.80;7.30;;;;;;;14.16;100.00;95853.03;5074438;28;20188;-76
2023/03/24 09:53:48;;;;;;;6.83;6.33;;;;;;;14.26;100.00;95857.50;5060947;28;20664;-74
2023/03/24 09:56:16;;;;;;;6.40;6.00;;;;;;;14.26;100.00;95852.22;5093330;28;20637;-75
2023/03/24 09:58:47;;;;;;;10.83;10.13;;;;;;;14.36;100.00;95841.59;5075217;28;20181;-75
2023/03/24 10:01:14;;;;;;;7.30;6.90;;;;;;;14.60;100.00;95841.75;5075785;28;20219;-75
2023/03/24 10:03:40;;;;;;;9.90;9.17;;;;;;;14.59;100.00;95837.53;5077815;28;20181;-76
2023/03/24 10:06:25;;;;;;;10.47;9.83;;;;;;;14.67;100.00;95836.94;5080338;28;20211;-73
2023/03/24 10:09:09;;;;;;;12.47;11.77;;;;;;;14.67;100.00;95821.09;5081804;28;20654;-74
2023/03/24 10:11:46;;;;;;;7.90;7.50;;;;;;;14.91;100.00;95820.13;5081494;28;20173;-75
2023/03/24 10:14:11;;;;;;;6.50;6.03;;;;;;;15.15;100.00;95822.81;5068144;28;20180;-74
2023/03/24 10:16:58;;;;;;;7.90;7.32;;;;;;;15.51;100.00;95825.06;5082690;28;20192;-74
2023/03/24 10:19:45;;;;;;;6.25;5.85;;;;;;;15.21;100.00;95821.69;5074592;28;20181;-75
2023/03/24 10:23:02;;;;;;;6.73;6.33;;;;;;;15.26;100.00;95832.22;5068261;28;20225;-74
2023/03/24 10:26:06;;;;;;;18.92;17.92;;;;;;;15.07;100.00;95818.13;5023989;28;20197;-74
2023/03/24 10:28:42;;;;;;;16.00;15.13;;;;;;;15.52;100.00;95809.00;5055570;28;20605;-77
2023/03/24 10:31:11;;;;;;;8.02;7.63;;;;;;;15.74;100.00;95822.47;5076902;28;20273;-76
2023/03/24 10:33:41;;;;;;;4.88;4.40;;;;;;;15.75;100.00;95831.19;5090591;28;20196;-75
2023/03/24 10:36:12;;;;;;;6.40;6.00;;;;;;;15.75;100.00;95845.19;5081080;28;20209;-77
2023/03/24 10:38:38;;;;;;;4.57;4.35;;;;;;;15.86;99.31;95832.63;5093089;28;20253;-75
2023/03/24 10:41:04;;;;;;;4.32;4.13;;;;;;;15.54;95.75;95827.22;5093078;28;20672;-75
2023/03/24 10:43:31;;;;;;;8.25;7.85;;;;;;;15.38;92.18;95837.88;5090835;28;20211;-76
2023/03/24 10:45:57;;;;;;;7.50;7.10;;;;;;;15.53;92.16;95829.06;5054887;28;20258;-75
2023/03/24 10:48:33;;;;;;;6.13;5.80;;;;;;;15.47;90.63;95846.00;5072786;28;20181;-74
2023/03/24 10:50:58;;;;;;;9.13;8.65;;;;;;;15.44;90.47;95856.31;5072780;28;20205;-76
2023/03/24 10:53:24;;;;;;;4.30;4.10;;;;;;;15.71;89.95;95856.59;5071576;28;20212;-74
2023/03/24 10:55:49;;;;;;;28.15;26.70;;;;;;;15.89;87.76;95861.13;5072554;28;20184;-75
2023/03/24 10:58:39;;;;;;;29.58;28.00;;;;;;;15.72;87.63;95879.28;5072746;28;20185;-75
2023/03/24 11:01:26;;;;;;;16.83;15.93;;;;;;;15.39;87.83;95867.72;5049772;28;20567;-75
2023/03/24 11:03:57;;;;;;;12.57;11.97;;;;;;;15.24;89.38;95871.31;5080472;28;20253;-75
2023/03/24 11:06:22;;;;;;;16.00;15.23;;;;;;;15.35;88.97;95872.78;5080779;28;20185;-76
2023/03/24 11:09:07;;;;;;;10.95;10.45;;;;;;;15.28;86.75;95855.69;5075609;28;20196;-75
2023/03/24 11:11:34;;;;;;;29.65;28.10;;;;;;;15.38;85.57;95874.06;5077239;28;20237;-75
2023/03/24 11:14:01;;;;;;;20.90;19.88;;;;;;;15.49;85.23;95856.28;5091065;28;20675;-74
2023/03/24 11:16:34;;;;;;;17.70;16.80;;;;;;;15.67;84.01;95859.00;5083028;28;20220;-74
2023/03/24 11:19:05;;;;;;;9.30;8.88;;;;;;;15.90;82.74;95851.34;5074123;28;20185;-76
2023/03/24 11:21:35;;;;;;;7.38;6.97;;;;;;;16.12;82.27;95852.38;5079160;28;20227;-75
2023/03/24 11:24:09;;;;;;;47.90;45.47;;;;;;;16.22;79.46;95860.19;5087336;28;20197;-75
2023/03/24 11:26:37;;;;;;;61.08;57.90;;;;;;;16.27;78.91;95864.66;5057147;28;20213;-76
2023/03/24 11:29:08;;;;;;;18.90;18.00;;;;;;;16.45;76.86;95879.72;5072724;28;20209;-76
2023/03/24 11:31:39;;;;;;;18.13;17.15;;;;;;;16.43;78.12;95870.50;5072701;28;20178;-76
2023/03/24 11:34:15;;;;;;;10.35;9.85;;;;;;;16.60;76.45;95868.97;5072409;28;20184;-76
2023/03/24 11:36:49;;;;;;;7.35;6.97;;;;;;;16.14;79.80;95860.84;5064361;28;20203;-75
2023/03/24 11:39:23;;;;;;;8.15;7.75;;;;;;;16.40;77.47;95865.78;5092811;28;20219;-78
2023/03/24 11:42:14;;;;;;;7.40;7.10;;;;;;;16.20;77.11;95859.69;5072098;28;20573;-76